Time;durP1;ratioP1;P1;durP2;ratioP2;P2;SDS_P1;SDS_P2;PMS_P1;PMS_P2;Temp;Humidity;BMP_temperature;BMP_pressure;BME280_temperature;BME280_humidity;BME280_pressure;Samples;Min_cycle;Max_cycle;Signal;HPM_P1;HPM_P2
2022/10/27 00:00:29;;;;;;;17.60;11.40;;;16.40;94.90;;;;;;4976476;28;20109;-64
2022/10/27 00:02:55;;;;;;;20.60;10.75;;;16.40;95.00;;;;;;4976018;28;20038;-64
2022/10/27 00:05:23;;;;;;;16.10;10.52;;;16.40;94.90;;;;;;4976308;28;20034;-63
2022/10/27 00:07:49;;;;;;;19.52;10.63;;;16.30;94.80;;;;;;4976141;28;20109;-63
2022/10/27 00:10:15;;;;;;;15.70;10.20;;;16.30;94.90;;;;;;4975988;28;20466;-64
2022/10/27 00:12:41;;;;;;;14.80;9.85;;;16.30;94.70;;;;;;4976307;28;20038;-64
2022/10/27 00:15:07;;;;;;;22.25;10.27;;;16.30;94.80;;;;;;4976020;28;20045;-64
2022/10/27 00:17:33;;;;;;;19.85;12.10;;;16.30;94.70;;;;;;4976364;28;20085;-64
2022/10/27 00:19:58;;;;;;;20.77;10.38;;;16.20;94.70;;;;;;4976239;28;20027;-64
2022/10/27 00:22:24;;;;;;;25.98;11.90;;;16.20;94.90;;;;;;4976078;28;20425;-64
2022/10/27 00:24:50;;;;;;;26.20;14.30;;;16.20;94.80;;;;;;4976022;28;20035;-66
2022/10/27 00:27:15;;;;;;;28.13;13.30;;;16.20;94.80;;;;;;4975698;28;20047;-64
2022/10/27 00:29:41;;;;;;;17.13;12.43;;;16.20;94.90;;;;;;4975934;28;20035;-65
2022/10/27 00:32:06;;;;;;;17.27;11.80;;;16.20;94.90;;;;;;4975652;28;20042;-64
2022/10/27 00:34:32;;;;;;;16.33;12.38;;;16.10;94.80;;;;;;4975824;28;20054;-64
2022/10/27 00:36:58;;;;;;;18.92;11.35;;;16.10;94.70;;;;;;4975725;28;20058;-64
2022/10/27 00:39:23;;;;;;;18.35;12.40;;;16.10;94.60;;;;;;4975546;28;20027;-64
2022/10/27 00:41:49;;;;;;;22.55;11.73;;;16.10;94.50;;;;;;4975910;28;20039;-63
2022/10/27 00:44:40;;;;;;;19.25;10.35;;;16.00;94.40;;;;;;4975616;28;20027;-64
2022/10/27 00:47:19;;;;;;;16.60;11.30;;;16.00;94.40;;;;;;4975251;28;20031;-64
2022/10/27 00:50:13;;;;;;;15.55;10.18;;;16.00;94.40;;;;;;4975800;28;20370;-63
2022/10/27 00:52:45;;;;;;;17.30;9.63;;;15.90;94.40;;;;;;4975401;28;20047;-63
2022/10/27 00:55:13;;;;;;;;;;;15.90;94.50;;;;;;4976146;28;20101;-64
2022/10/27 00:57:41;;;;;;;16.70;10.68;;;15.90;94.40;;;;;;4974478;28;19914;-64
2022/10/27 01:00:07;;;;;;;16.23;10.30;;;15.90;94.60;;;;;;4972639;28;20519;-64
2022/10/27 01:02:34;;;;;;;17.60;10.85;;;15.90;94.60;;;;;;4972565;28;20041;-64
2022/10/27 01:05:12;;;;;;;15.70;11.55;;;15.80;94.60;;;;;;4974171;28;20034;-66
2022/10/27 01:07:39;;;;;;;17.23;11.57;;;15.80;94.60;;;;;;4975306;28;20031;-64
2022/10/27 01:10:05;;;;;;;17.30;10.85;;;15.80;94.50;;;;;;4975035;28;20113;-64
2022/10/27 01:12:31;;;;;;;20.52;13.15;;;15.80;94.50;;;;;;4974773;28;20499;-65
2022/10/27 01:14:57;;;;;;;19.67;12.32;;;15.70;94.60;;;;;;4961094;28;20122;-63
2022/10/27 01:17:29;;;;;;;20.20;12.65;;;15.70;94.80;;;;;;4955609;28;20031;-64
2022/10/27 01:20:12;;;;;;;18.83;12.00;;;15.70;94.80;;;;;;4955398;28;20062;-63
2022/10/27 01:22:55;;;;;;;19.83;10.77;;;15.70;95.10;;;;;;4955567;28;20031;-64
2022/10/27 01:25:52;;;;;;;18.48;11.32;;;15.70;94.70;;;;;;4955808;28;20042;-64
2022/10/27 01:28:48;;;;;;;17.27;11.48;;;15.70;94.70;;;;;;4955274;28;20063;-63
2022/10/27 01:31:22;;;;;;;21.63;12.63;;;15.70;94.80;;;;;;4955178;28;20054;-64
2022/10/27 01:33:55;;;;;;;17.50;11.35;;;15.70;94.80;;;;;;4955314;28;20032;-63
2022/10/27 01:36:39;;;;;;;16.27;11.07;;;15.60;94.90;;;;;;4955057;28;20047;-64
2022/10/27 01:39:08;;;;;;;17.67;11.15;;;15.70;94.90;;;;;;4954661;29;20398;-64
2022/10/27 01:41:42;;;;;;;16.52;10.63;;;15.60;94.90;;;;;;4954640;28;20035;-64
2022/10/27 01:44:14;;;;;;;16.25;10.27;;;15.60;95.00;;;;;;4955199;28;20494;-64
2022/10/27 01:46:41;;;;;;;18.77;10.07;;;15.60;94.80;;;;;;4955204;28;20458;-63
2022/10/27 01:49:08;;;;;;;15.68;8.98;;;15.60;94.80;;;;;;4955221;28;20028;-63
2022/10/27 01:51:33;;;;;;;18.58;11.23;;;15.60;94.70;;;;;;4953943;28;20082;-64
2022/10/27 01:53:59;;;;;;;16.13;11.00;;;15.60;94.70;;;;;;4955269;28;20395;-64
2022/10/27 01:56:44;;;;;;;22.05;10.35;;;15.60;94.90;;;;;;4955266;28;20106;-64
2022/10/27 01:59:31;;;;;;;15.95;9.27;;;15.60;94.90;;;;;;4955307;28;20133;-64
2022/10/27 02:02:11;;;;;;;26.58;9.07;;;15.60;94.60;;;;;;4955065;28;20042;-66
2022/10/27 02:04:59;;;;;;;14.43;9.18;;;15.50;94.60;;;;;;4954645;28;20035;-63
2022/10/27 02:07:44;;;;;;;18.55;9.02;;;15.50;94.50;;;;;;4955052;28;20043;-64
2022/10/27 02:10:16;;;;;;;11.68;8.05;;;15.50;94.40;;;;;;4954811;28;20082;-63
2022/10/27 02:12:44;;;;;;;12.68;9.00;;;15.50;94.40;;;;;;4954625;28;20047;-64
2022/10/27 02:15:24;;;;;;;13.00;8.65;;;15.40;94.40;;;;;;4954788;28;20035;-64
2022/10/27 02:17:56;;;;;;;14.40;9.00;;;15.40;94.40;;;;;;4954639;28;20502;-64
2022/10/27 02:20:25;;;;;;;17.23;9.00;;;15.40;94.50;;;;;;4954827;28;20043;-64
2022/10/27 02:22:54;;;;;;;15.63;9.20;;;15.30;94.70;;;;;;4954725;28;20486;-63
2022/10/27 02:25:28;;;;;;;14.60;8.32;;;15.30;94.80;;;;;;4954304;28;20433;-63
2022/10/27 02:28:00;;;;;;;17.13;8.50;;;15.30;94.70;;;;;;4954548;28;20042;-63
2022/10/27 02:30:26;;;;;;;13.87;8.07;;;15.30;94.80;;;;;;4954783;28;20043;-64
2022/10/27 02:32:52;;;;;;;17.33;8.18;;;15.30;94.70;;;;;;4954325;28;20046;-64
2022/10/27 02:35:18;;;;;;;11.30;7.72;;;15.30;94.70;;;;;;4954377;28;20046;-64
2022/10/27 02:37:45;;;;;;;16.42;8.55;;;15.30;94.70;;;;;;4954305;28;20058;-64
2022/10/27 02:40:11;;;;;;;15.10;7.47;;;15.20;94.60;;;;;;4954515;28;20039;-65
2022/10/27 02:42:37;;;;;;;12.93;8.18;;;15.20;94.40;;;;;;4954942;28;20039;-63
2022/10/27 02:45:03;;;;;;;17.48;8.50;;;15.20;94.40;;;;;;4954337;28;20038;-64
2022/10/27 02:47:29;;;;;;;11.30;7.70;;;15.20;94.50;;;;;;4954430;28;20501;-63
2022/10/27 02:49:54;;;;;;;14.93;7.65;;;15.20;94.60;;;;;;4954725;28;20028;-64
2022/10/27 02:52:20;;;;;;;16.17;7.75;;;15.20;94.60;;;;;;4954090;28;20054;-66
2022/10/27 02:54:47;;;;;;;11.18;8.02;;;15.20;94.40;;;;;;4954253;28;20070;-63
2022/10/27 02:57:16;;;;;;;18.13;8.90;;;15.10;94.50;;;;;;4954371;28;20070;-64
2022/10/27 02:59:42;;;;;;;14.80;8.85;;;15.20;94.70;;;;;;4954661;28;20031;-70
2022/10/27 03:02:08;;;;;;;12.38;8.13;;;15.10;94.70;;;;;;4954509;28;20039;-63
2022/10/27 03:04:34;;;;;;;13.80;8.35;;;15.10;94.70;;;;;;4958028;28;20482;-64
2022/10/27 03:07:00;;;;;;;14.60;8.52;;;15.10;94.60;;;;;;4957939;28;20094;-63
2022/10/27 03:09:25;;;;;;;14.52;8.95;;;15.10;94.50;;;;;;4958132;28;20031;-64
2022/10/27 03:11:51;;;;;;;14.82;10.00;;;15.10;94.30;;;;;;4957884;28;20461;-64
2022/10/27 03:14:17;;;;;;;18.52;9.57;;;15.10;94.60;;;;;;4958132;28;20050;-63
2022/10/27 03:16:42;;;;;;;16.27;10.10;;;15.10;94.70;;;;;;4958148;28;20035;-63
2022/10/27 03:19:08;;;;;;;16.30;10.57;;;15.10;94.70;;;;;;4957923;28;20040;-63
2022/10/27 03:21:33;;;;;;;14.13;8.13;;;15.10;94.60;;;;;;4957594;28;20469;-64
2022/10/27 03:23:59;;;;;;;11.30;8.40;;;15.10;94.30;;;;;;4957889;28;20485;-65
2022/10/27 03:26:25;;;;;;;12.07;8.30;;;15.00;94.40;;;;;;4957715;28;20521;-64
2022/10/27 03:28:50;;;;;;;16.15;8.73;;;15.10;94.60;;;;;;4957666;28;20058;-65
2022/10/27 03:31:16;;;;;;;11.57;8.50;;;15.00;94.30;;;;;;4957338;28;20078;-67
2022/10/27 03:33:42;;;;;;;19.75;9.50;;;15.00;94.30;;;;;;4957606;28;20115;-63
2022/10/27 03:36:08;;;;;;;22.92;9.85;;;15.00;94.30;;;;;;4957799;28;20043;-63
2022/10/27 03:38:33;;;;;;;16.58;10.57;;;15.00;94.50;;;;;;4957948;28;20028;-64
2022/10/27 03:40:59;;;;;;;23.15;9.68;;;14.90;94.60;;;;;;4957502;28;20047;-64
2022/10/27 03:43:24;;;;;;;16.77;8.15;;;15.00;94.60;;;;;;4957434;28;20042;-64
2022/10/27 03:45:51;;;;;;;15.25;7.47;;;15.00;94.50;;;;;;4957534;28;20074;-63
2022/10/27 03:48:17;;;;;;;15.43;7.60;;;14.90;94.30;;;;;;4957285;28;20047;-63
2022/10/27 03:50:50;;;;;;;14.93;7.38;;;14.90;94.20;;;;;;4957096;28;20050;-63
2022/10/27 03:53:17;;;;;;;9.38;6.93;;;14.90;94.00;;;;;;4957248;28;20086;-63
2022/10/27 03:55:43;;;;;;;7.95;6.38;;;14.90;94.00;;;;;;4957360;28;20046;-70
2022/10/27 03:58:14;;;;;;;6.63;5.45;;;14.90;93.80;;;;;;4957405;28;20031;-64
2022/10/27 04:00:40;;;;;;;7.30;5.70;;;14.80;93.60;;;;;;4957087;28;20486;-64
2022/10/27 04:03:06;;;;;;;7.32;5.35;;;14.80;93.70;;;;;;4957007;28;20046;-64
2022/10/27 04:05:32;;;;;;;12.13;5.60;;;14.70;93.70;;;;;;4957066;28;20034;-64
2022/10/27 04:07:58;;;;;;;9.63;5.22;;;14.70;93.70;;;;;;4957490;28;20036;-63
2022/10/27 04:10:24;;;;;;;7.68;5.03;;;14.70;93.80;;;;;;4956866;28;20051;-63
2022/10/27 04:12:52;;;;;;;9.38;5.85;;;14.70;93.70;;;;;;4957232;28;20040;-64
2022/10/27 04:15:18;;;;;;;13.40;5.47;;;14.70;93.90;;;;;;4956442;28;20070;-64
2022/10/27 04:17:44;;;;;;;7.63;5.40;;;14.60;93.90;;;;;;4956986;28;20044;-63
2022/10/27 04:20:10;;;;;;;7.35;5.15;;;14.60;93.90;;;;;;4956709;28;20041;-64
2022/10/27 04:22:36;;;;;;;7.47;5.00;;;14.60;93.60;;;;;;4956892;28;20106;-67
2022/10/27 04:25:02;;;;;;;8.98;4.57;;;14.50;93.60;;;;;;4956812;28;20454;-71
2022/10/27 04:27:27;;;;;;;8.95;4.93;;;14.60;93.60;;;;;;4956571;28;20035;-63
2022/10/27 04:29:53;;;;;;;5.50;4.97;;;14.50;93.60;;;;;;4956698;28;20028;-64
2022/10/27 04:32:18;;;;;;;9.13;5.20;;;14.50;93.70;;;;;;4956788;28;20051;-64
2022/10/27 04:34:44;;;;;;;9.40;5.00;;;14.40;93.60;;;;;;4956543;28;20042;-64
2022/10/27 04:37:10;;;;;;;7.10;4.60;;;14.40;93.70;;;;;;4956596;28;20090;-64
2022/10/27 04:39:35;;;;;;;4.70;4.20;;;14.40;93.80;;;;;;4956218;28;20039;-64
2022/10/27 04:42:01;;;;;;;6.25;4.78;;;14.40;93.90;;;;;;4956671;28;20047;-64
2022/10/27 04:44:27;;;;;;;5.75;4.45;;;14.30;93.80;;;;;;4953698;28;20035;-65
2022/10/27 04:46:52;;;;;;;7.32;4.70;;;14.30;94.00;;;;;;4953492;28;20494;-65
2022/10/27 04:49:18;;;;;;;5.82;4.45;;;14.30;94.00;;;;;;4956126;28;20454;-63
2022/10/27 04:51:44;;;;;;;8.80;5.00;;;14.30;94.10;;;;;;4956241;28;20055;-64
2022/10/27 04:54:09;;;;;;;9.43;5.60;;;14.30;94.00;;;;;;4956329;28;20047;-66
2022/10/27 04:56:35;;;;;;;8.65;5.25;;;14.30;93.90;;;;;;4956361;28;20073;-64
2022/10/27 04:59:01;;;;;;;12.02;5.65;;;14.30;94.00;;;;;;4956149;28;20050;-63
2022/10/27 05:01:26;;;;;;;13.02;5.10;;;14.30;94.10;;;;;;4956021;28;20047;-64
2022/10/27 05:03:52;;;;;;;12.43;5.20;;;14.30;94.00;;;;;;4956340;28;20121;-72
2022/10/27 05:06:18;;;;;;;7.88;5.18;;;14.30;94.00;;;;;;4955933;28;20042;-64
2022/10/27 05:08:43;;;;;;;11.80;5.55;;;14.30;94.10;;;;;;4953621;28;20046;-65
2022/10/27 05:11:09;;;;;;;8.00;6.38;;;14.30;94.30;;;;;;4953106;28;20494;-64
2022/10/27 05:13:35;;;;;;;12.15;6.85;;;14.30;94.40;;;;;;4953068;28;20449;-63
2022/10/27 05:16:01;;;;;;;11.32;6.63;;;14.20;94.60;;;;;;4955062;28;20667;-63
2022/10/27 05:18:27;;;;;;;11.80;6.80;;;14.30;94.60;;;;;;4955955;28;20062;-63
2022/10/27 05:20:53;;;;;;;9.20;6.53;;;14.30;94.60;;;;;;4956279;28;21142;-63
2022/10/27 05:23:19;;;;;;;8.40;5.22;;;14.30;94.60;;;;;;4954504;29;20497;-63
2022/10/27 05:25:49;;;;;;;12.52;6.53;;;14.30;94.50;;;;;;4955966;28;20122;-63
2022/10/27 05:28:14;;;;;;;15.85;7.32;;;14.20;94.50;;;;;;4954141;28;20468;-63
2022/10/27 05:30:40;;;;;;;12.32;6.28;;;14.30;94.50;;;;;;4954505;28;20047;-63
2022/10/27 05:33:06;;;;;;;11.63;6.65;;;14.30;94.50;;;;;;4955093;28;20027;-65
2022/10/27 05:35:31;;;;;;;12.05;6.78;;;14.30;94.50;;;;;;4955570;28;20449;-64
2022/10/27 05:37:57;;;;;;;11.80;6.63;;;14.20;94.60;;;;;;4955443;28;20066;-63
2022/10/27 05:40:23;;;;;;;11.23;7.28;;;14.20;94.50;;;;;;4955564;28;20062;-63
2022/10/27 05:42:51;;;;;;;12.27;6.43;;;14.20;94.50;;;;;;4955778;28;20059;-72
2022/10/27 05:45:17;;;;;;;13.75;7.03;;;14.20;94.50;;;;;;4955325;28;20463;-63
2022/10/27 05:47:42;;;;;;;12.75;7.35;;;14.20;94.40;;;;;;4954340;29;20039;-63
2022/10/27 05:50:08;;;;;;;12.32;7.05;;;14.20;94.50;;;;;;4955402;28;20091;-64
2022/10/27 05:52:34;;;;;;;14.82;7.53;;;14.20;94.60;;;;;;4955388;28;20047;-64
2022/10/27 05:55:00;;;;;;;18.92;7.47;;;14.10;94.60;;;;;;4955461;28;20035;-67
2022/10/27 05:57:25;;;;;;;12.63;7.82;;;14.10;94.60;;;;;;4954308;28;20035;-64
2022/10/27 05:59:51;;;;;;;19.98;8.50;;;14.10;94.70;;;;;;4954514;28;20050;-64
2022/10/27 06:02:17;;;;;;;23.40;10.57;;;14.20;94.80;;;;;;4954626;28;20035;-64
2022/10/27 06:04:42;;;;;;;15.65;9.88;;;14.20;94.90;;;;;;4955276;28;20035;-68
2022/10/27 06:07:08;;;;;;;18.98;9.82;;;14.20;94.90;;;;;;4953532;29;20442;-64
2022/10/27 06:09:33;;;;;;;20.35;9.07;;;14.20;94.90;;;;;;4954495;28;20453;-63
2022/10/27 06:11:59;;;;;;;21.70;8.88;;;14.20;95.00;;;;;;4953982;28;20054;-64
2022/10/27 06:14:25;;;;;;;18.25;8.75;;;14.20;95.00;;;;;;4954640;28;20036;-64
2022/10/27 06:16:50;;;;;;;15.50;8.00;;;14.20;94.90;;;;;;4954190;28;20118;-64
2022/10/27 06:19:16;;;;;;;19.92;9.02;;;14.20;94.90;;;;;;4954445;28;20031;-64
2022/10/27 06:21:42;;;;;;;22.58;8.80;;;14.20;95.10;;;;;;4954847;28;20424;-64
2022/10/27 06:24:07;;;;;;;17.90;9.07;;;14.20;95.30;;;;;;4955179;28;20046;-64
2022/10/27 06:26:33;;;;;;;23.95;10.73;;;14.20;95.30;;;;;;4955208;28;20042;-63
2022/10/27 06:28:59;;;;;;;22.08;11.68;;;14.20;95.40;;;;;;4954785;28;20054;-64
2022/10/27 06:31:24;;;;;;;27.35;12.80;;;14.20;95.60;;;;;;4953439;28;20503;-64
2022/10/27 06:33:50;;;;;;;21.23;12.60;;;14.30;95.60;;;;;;4954922;28;20499;-63
2022/10/27 06:36:16;;;;;;;19.92;11.85;;;14.30;95.80;;;;;;4954561;28;20508;-64
2022/10/27 06:38:41;;;;;;;25.05;11.82;;;14.30;95.70;;;;;;4954327;28;20351;-64
2022/10/27 06:41:07;;;;;;;21.80;11.45;;;14.40;95.90;;;;;;4954564;28;20061;-64
2022/10/27 06:43:32;;;;;;;21.25;11.45;;;14.40;96.00;;;;;;4954699;28;20097;-65
2022/10/27 06:45:58;;;;;;;17.45;10.55;;;14.40;96.10;;;;;;4954453;28;20082;-65
2022/10/27 06:48:24;;;;;;;17.70;10.98;;;14.50;96.10;;;;;;4954137;28;20035;-62
2022/10/27 06:50:49;;;;;;;19.08;10.85;;;14.50;96.20;;;;;;4952997;28;20043;-63
2022/10/27 06:53:15;;;;;;;16.98;10.10;;;14.60;96.20;;;;;;4954576;28;20405;-62
2022/10/27 06:55:41;;;;;;;23.90;11.10;;;14.60;96.30;;;;;;4954582;28;20043;-61
2022/10/27 06:58:06;;;;;;;21.35;11.88;;;14.70;96.60;;;;;;4954121;28;20074;-62
2022/10/27 07:00:32;;;;;;;18.38;11.70;;;14.70;96.70;;;;;;4954736;28;20398;-61
2022/10/27 07:02:58;;;;;;;21.85;11.07;;;14.80;96.80;;;;;;4954806;28;20035;-62
2022/10/27 07:05:24;;;;;;;16.98;10.18;;;14.90;96.80;;;;;;4954173;28;20499;-64
2022/10/27 07:07:51;;;;;;;19.65;10.70;;;14.90;96.80;;;;;;4954061;28;20107;-65
2022/10/27 07:10:18;;;;;;;27.27;10.45;;;15.00;96.80;;;;;;4953927;28;20035;-62
2022/10/27 07:12:58;;;;;;;20.20;10.55;;;15.10;96.90;;;;;;4954312;28;20042;-64
2022/10/27 07:15:27;;;;;;;13.50;9.18;;;15.10;96.90;;;;;;4953545;28;20113;-65
2022/10/27 07:18:00;;;;;;;18.15;9.70;;;15.20;96.90;;;;;;4953935;28;20393;-63
2022/10/27 07:20:28;;;;;;;20.38;9.32;;;15.20;97.00;;;;;;4954556;28;20043;-63
2022/10/27 07:22:54;;;;;;;14.60;8.48;;;15.30;97.20;;;;;;4954432;28;20429;-62
2022/10/27 07:25:20;;;;;;;13.15;8.00;;;15.40;97.30;;;;;;4954044;28;20132;-62
2022/10/27 07:27:55;;;;;;;14.88;8.02;;;15.50;97.30;;;;;;4954102;28;20023;-64
2022/10/27 07:30:23;;;;;;;14.07;8.05;;;15.60;97.30;;;;;;4954567;28;20434;-66
2022/10/27 07:32:49;;;;;;;13.00;8.30;;;15.70;97.20;;;;;;4954449;28;20078;-62
2022/10/27 07:35:15;;;;;;;13.27;8.10;;;15.70;97.20;;;;;;4954049;28;20031;-64
2022/10/27 07:37:45;;;;;;;17.20;9.38;;;15.80;97.20;;;;;;4954232;28;20028;-61
2022/10/27 07:40:12;;;;;;;17.20;10.05;;;15.80;97.20;;;;;;4954127;28;20501;-65
2022/10/27 07:42:49;;;;;;;13.90;9.25;;;15.80;97.30;;;;;;4954345;28;20067;-62
2022/10/27 07:45:17;;;;;;;24.55;9.45;;;15.90;97.30;;;;;;4954809;28;20039;-61
2022/10/27 07:47:53;;;;;;;16.75;8.52;;;15.90;97.20;;;;;;4954317;28;20131;-64
2022/10/27 07:50:21;;;;;;;17.00;8.52;;;16.00;97.20;;;;;;4955390;28;20067;-68
2022/10/27 07:52:50;;;;;;;15.00;9.50;;;16.10;97.10;;;;;;4957382;28;20387;-61
2022/10/27 07:55:17;;;;;;;19.48;9.85;;;16.10;97.10;;;;;;4957523;28;20482;-62
2022/10/27 07:57:44;;;;;;;19.65;9.18;;;16.20;97.10;;;;;;4957351;28;20075;-62
2022/10/27 08:00:12;;;;;;;20.95;9.30;;;16.20;97.10;;;;;;4957236;28;20515;-62
2022/10/27 08:02:38;;;;;;;16.05;9.30;;;16.30;97.10;;;;;;4957146;28;20094;-64
2022/10/27 08:05:05;;;;;;;17.90;8.73;;;16.30;97.00;;;;;;4957484;28;20039;-62
2022/10/27 08:07:30;;;;;;;20.02;9.35;;;16.40;97.00;;;;;;4957600;28;20446;-68
2022/10/27 08:09:56;;;;;;;16.55;8.73;;;16.50;97.10;;;;;;4957402;28;20039;-62
2022/10/27 08:12:22;;;;;;;15.88;8.02;;;16.50;97.40;;;;;;4957526;28;20130;-64
2022/10/27 08:14:48;;;;;;;11.07;6.70;;;16.60;97.00;;;;;;4957425;28;20489;-64
2022/10/27 08:17:14;;;;;;;17.33;6.85;;;16.60;96.90;;;;;;4957250;28;20050;-64
2022/10/27 08:19:40;;;;;;;14.05;7.47;;;16.70;96.70;;;;;;4961420;28;20536;-64
2022/10/27 08:22:05;;;;;;;17.63;7.13;;;16.80;96.70;;;;;;4964818;28;20154;-62
2022/10/27 08:24:31;;;;;;;13.60;7.13;;;16.90;96.60;;;;;;4963111;28;20055;-65
2022/10/27 08:26:57;;;;;;;10.45;6.10;;;16.90;96.40;;;;;;4957101;29;20050;-64
2022/10/27 08:29:22;;;;;;;14.30;6.38;;;17.00;96.40;;;;;;4957146;29;20043;-62
2022/10/27 08:31:48;;;;;;;10.88;6.65;;;17.00;96.10;;;;;;4957105;28;20450;-62
2022/10/27 08:34:14;;;;;;;14.98;6.85;;;17.10;95.90;;;;;;4957048;29;20039;-64
2022/10/27 08:36:39;;;;;;;14.05;6.65;;;17.20;96.20;;;;;;4957095;29;20041;-61
2022/10/27 08:39:09;;;;;;;10.93;6.93;;;17.20;96.10;;;;;;4956993;29;20039;-65
2022/10/27 08:41:42;;;;;;;12.75;7.20;;;17.30;95.80;;;;;;4956721;28;20039;-66
2022/10/27 08:44:17;;;;;;;13.60;6.68;;;17.30;95.80;;;;;;4956799;28;20122;-62
2022/10/27 08:47:02;;;;;;;11.73;6.70;;;17.40;95.40;;;;;;4956772;29;20038;-63
2022/10/27 08:49:44;;;;;;;14.20;6.93;;;17.40;95.50;;;;;;4955269;29;20094;-62
2022/10/27 08:52:33;;;;;;;14.75;6.78;;;17.50;95.80;;;;;;4956384;28;20043;-62
2022/10/27 08:55:17;;;;;;;15.07;7.18;;;17.60;95.70;;;;;;4956478;28;20398;-63
2022/10/27 08:57:56;;;;;;;16.90;8.15;;;17.70;95.70;;;;;;4956521;28;20394;-64
2022/10/27 09:00:22;;;;;;;15.73;7.35;;;17.70;95.80;;;;;;4956427;28;20462;-62
2022/10/27 09:02:48;;;;;;;19.58;7.57;;;17.80;95.90;;;;;;4956088;28;20035;-63
2022/10/27 09:05:19;;;;;;;18.08;7.18;;;17.90;95.50;;;;;;4956027;29;20092;-63
2022/10/27 09:07:54;;;;;;;14.03;7.77;;;18.00;95.40;;;;;;4955913;29;20114;-63
2022/10/27 09:10:37;;;;;;;18.23;7.88;;;18.10;95.20;;;;;;4956285;29;20446;-63
2022/10/27 09:13:32;;;;;;;13.13;6.68;;;18.20;95.30;;;;;;4956371;29;20039;-64
2022/10/27 09:16:03;;;;;;;15.90;7.15;;;18.30;95.00;;;;;;4953305;28;20168;-62
2022/10/27 09:18:38;;;;;;;16.73;7.00;;;18.30;94.60;;;;;;4955929;28;20043;-62
2022/10/27 09:21:20;;;;;;;13.18;6.70;;;18.40;94.90;;;;;;4955916;28;20501;-62
2022/10/27 09:24:13;;;;;;;13.40;6.30;;;18.40;94.40;;;;;;4955573;28;20359;-62
2022/10/27 09:26:39;;;;;;;;;;;18.50;94.20;;;;;;4956115;28;20043;-64
2022/10/27 09:29:21;;;;;;;10.40;6.75;;;18.50;94.30;;;;;;4955553;28;19910;-62
2022/10/27 09:32:06;;;;;;;18.27;7.38;;;18.60;94.20;;;;;;4955638;28;20047;-62
2022/10/27 09:34:45;;;;;;;11.45;6.38;;;18.70;94.00;;;;;;4955852;28;20059;-62
2022/10/27 09:37:16;;;;;;;12.05;6.88;;;18.80;94.00;;;;;;4955808;28;20039;-64
2022/10/27 09:39:49;;;;;;;13.55;6.60;;;18.90;93.80;;;;;;4971361;28;20043;-67
2022/10/27 09:42:16;;;;;;;12.95;5.70;;;19.00;93.70;;;;;;4975089;28;20031;-62
2022/10/27 09:44:51;;;;;;;13.93;5.65;;;19.00;93.40;;;;;;4967765;28;20054;-64
2022/10/27 09:47:17;;;;;;;16.60;7.43;;;19.10;93.30;;;;;;4955486;28;20062;-64
2022/10/27 09:49:45;;;;;;;13.30;6.13;;;19.20;93.00;;;;;;4955541;28;20067;-67
2022/10/27 09:52:21;;;;;;;13.52;6.13;;;19.20;93.00;;;;;;4955309;28;20135;-64
2022/10/27 09:54:54;;;;;;;13.63;6.15;;;19.30;92.90;;;;;;4955672;28;20530;-64
2022/10/27 09:57:25;;;;;;;16.45;6.22;;;19.40;92.80;;;;;;4955429;28;20035;-64
2022/10/27 09:59:53;;;;;;;14.13;5.53;;;19.50;92.80;;;;;;4955385;28;20031;-61
2022/10/27 10:02:34;;;;;;;17.38;6.45;;;19.50;92.50;;;;;;4955598;29;20505;-64
2022/10/27 10:05:03;;;;;;;11.13;6.22;;;19.70;92.70;;;;;;4955251;28;20503;-65
2022/10/27 10:07:34;;;;;;;9.80;5.95;;;19.70;92.90;;;;;;4960505;28;20560;-64
2022/10/27 10:10:00;;;;;;;15.88;5.93;;;19.80;92.50;;;;;;4962454;28;20081;-65
2022/10/27 10:12:26;;;;;;;15.10;6.57;;;19.90;92.20;;;;;;4961679;28;20044;-64
2022/10/27 10:15:10;;;;;;;22.95;6.35;;;20.00;91.90;;;;;;4964312;28;20035;-64
2022/10/27 10:17:40;;;;;;;9.27;5.40;;;20.10;91.70;;;;;;4965294;28;20041;-66
2022/10/27 10:20:22;;;;;;;13.82;4.80;;;20.10;91.40;;;;;;4962424;28;20505;-65
2022/10/27 10:22:50;;;;;;;11.25;5.22;;;20.20;91.50;;;;;;4962009;28;20062;-64
2022/10/27 10:25:18;;;;;;;11.25;5.63;;;20.20;91.00;;;;;;4963888;28;20033;-67
2022/10/27 10:27:48;;;;;;;18.48;5.57;;;20.30;90.90;;;;;;4963361;28;20035;-64
2022/10/27 10:30:18;;;;;;;12.98;6.00;;;20.40;90.40;;;;;;4964202;28;20408;-64
2022/10/27 10:32:50;;;;;;;11.85;4.63;;;20.40;90.40;;;;;;4963606;28;20458;-66
2022/10/27 10:35:42;;;;;;;7.57;4.63;;;20.50;90.30;;;;;;4964117;28;20039;-66
2022/10/27 10:38:23;;;;;;;19.40;5.32;;;20.60;89.40;;;;;;4961189;28;20110;-66
2022/10/27 10:41:15;;;;;;;12.68;4.25;;;20.60;89.00;;;;;;4966381;28;20046;-65
2022/10/27 10:43:43;;;;;;;25.60;4.97;;;20.70;88.80;;;;;;4966319;28;20054;-65
2022/10/27 10:46:35;;;;;;;10.77;4.38;;;20.80;88.10;;;;;;4961903;28;20078;-64
2022/10/27 10:49:01;;;;;;;13.38;4.18;;;20.90;88.60;;;;;;4962100;28;20070;-64
2022/10/27 10:51:30;;;;;;;14.32;5.70;;;21.00;88.40;;;;;;4961592;28;20056;-65
2022/10/27 10:54:05;;;;;;;7.10;3.53;;;21.10;88.20;;;;;;4963349;28;20101;-64
2022/10/27 10:56:33;;;;;;;10.95;3.50;;;21.10;87.30;;;;;;4964138;28;20061;-66
2022/10/27 10:59:08;;;;;;;10.00;3.50;;;21.20;87.30;;;;;;4962877;28;20513;-64
2022/10/27 11:01:39;;;;;;;7.55;3.58;;;21.20;87.00;;;;;;4964802;28;20045;-64
2022/10/27 11:04:05;;;;;;;9.80;3.60;;;21.30;86.00;;;;;;4968653;28;20031;-64
2022/10/27 11:06:31;;;;;;;14.70;3.30;;;21.40;85.40;;;;;;4973381;28;20038;-64
2022/10/27 11:09:03;;;;;;;4.90;3.15;;;21.50;84.30;;;;;;4973552;28;20031;-64
2022/10/27 11:11:37;;;;;;;12.80;3.88;;;21.50;83.30;;;;;;4974081;28;20047;-64
2022/10/27 11:14:09;;;;;;;7.53;3.30;;;21.60;83.30;;;;;;4973927;28;20027;-65
2022/10/27 11:16:37;;;;;;;16.42;3.42;;;21.70;83.60;;;;;;4974081;28;20041;-65
2022/10/27 11:19:14;;;;;;;9.00;3.28;;;21.80;83.40;;;;;;4973882;28;20031;-67
2022/10/27 11:22:06;;;;;;;8.32;3.53;;;21.80;83.00;;;;;;4973753;28;20118;-65
2022/10/27 11:24:45;;;;;;;14.85;3.53;;;21.90;81.30;;;;;;4973890;28;20043;-68
2022/10/27 11:27:32;;;;;;;9.45;3.20;;;21.90;81.60;;;;;;4977357;28;20035;-65
2022/10/27 11:30:02;;;;;;;6.05;3.38;;;22.00;81.50;;;;;;4976962;28;20066;-66
2022/10/27 11:32:44;;;;;;;7.72;3.00;;;22.00;80.40;;;;;;4974969;28;20397;-65
2022/10/27 11:35:37;;;;;;;13.18;4.22;;;22.10;78.90;;;;;;4976762;28;20105;-64
2022/10/27 11:38:20;;;;;;;;;;;22.10;79.50;;;;;;4977961;28;20039;-65
2022/10/27 11:40:52;;;;;;;14.80;3.17;;;22.10;79.20;;;;;;4976916;28;20443;-64
2022/10/27 11:43:42;;;;;;;7.35;2.83;;;22.10;79.40;;;;;;4976692;28;20042;-65
2022/10/27 11:46:16;;;;;;;12.25;4.25;;;22.20;79.20;;;;;;4977031;28;20042;-66
2022/10/27 11:48:49;;;;;;;6.35;2.78;;;22.20;80.50;;;;;;4977236;28;20039;-64
2022/10/27 11:51:23;;;;;;;5.47;3.00;;;22.30;77.50;;;;;;4976743;28;20055;-64
2022/10/27 11:53:51;;;;;;;10.73;3.80;;;22.30;74.10;;;;;;4977205;28;20031;-65
2022/10/27 11:56:20;;;;;;;6.78;2.97;;;22.40;76.60;;;;;;4977203;28;20035;-65
2022/10/27 11:58:56;;;;;;;5.72;2.55;;;22.40;76.20;;;;;;4977034;28;20031;-65
2022/10/27 12:01:33;;;;;;;14.80;3.22;;;22.50;74.80;;;;;;4977040;28;20042;-64
2022/10/27 12:04:03;;;;;;;9.88;3.40;;;22.50;74.80;;;;;;4976927;28;20038;-65
2022/10/27 12:06:39;;;;;;;6.90;2.50;;;22.60;75.10;;;;;;4976516;28;20138;-65
2022/10/27 12:09:32;;;;;;;9.27;3.40;;;22.60;74.40;;;;;;4976737;28;20091;-65
2022/10/27 12:12:13;;;;;;;11.38;2.22;;;22.70;75.00;;;;;;4976686;28;20378;-64
2022/10/27 12:14:59;;;;;;;11.32;2.70;;;22.80;74.60;;;;;;4976737;28;20046;-65
2022/10/27 12:17:50;;;;;;;8.27;2.65;;;22.80;74.50;;;;;;4976672;28;20118;-64
2022/10/27 12:20:34;;;;;;;7.50;2.83;;;22.90;72.50;;;;;;4976839;28;20035;-65
2022/10/27 12:23:10;;;;;;;6.85;2.53;;;22.90;72.50;;;;;;4976110;28;20049;-65
2022/10/27 12:25:42;;;;;;;9.73;2.83;;;23.00;73.60;;;;;;4976641;28;20461;-65
2022/10/27 12:28:11;;;;;;;;;;;23.00;73.10;;;;;;4977034;28;20389;-65
2022/10/27 12:30:41;;;;;;;6.82;3.25;;;23.00;72.60;;;;;;4976280;28;19921;-65
2022/10/27 12:33:24;;;;;;;10.43;2.88;;;23.00;74.50;;;;;;4976255;28;20038;-64
2022/10/27 12:36:06;;;;;;;9.85;2.50;;;23.00;75.00;;;;;;4974366;28;20437;-64
2022/10/27 12:38:41;;;;;;;8.55;2.80;;;22.90;74.00;;;;;;4957088;28;20114;-65
2022/10/27 12:41:22;;;;;;;4.82;2.47;;;22.90;73.50;;;;;;4956660;29;20344;-64
2022/10/27 12:43:48;;;;;;;6.03;2.88;;;22.80;74.80;;;;;;4956461;29;20035;-64
2022/10/27 12:46:29;;;;;;;7.93;2.40;;;22.80;74.30;;;;;;4956718;29;20031;-64
2022/10/27 12:48:58;;;;;;;12.23;3.47;;;22.90;74.30;;;;;;4956662;29;20494;-64
2022/10/27 12:51:35;;;;;;;6.72;2.47;;;23.00;75.30;;;;;;4956543;29;20560;-63
2022/10/27 12:54:35;;;;;;;9.07;2.35;;;23.00;75.40;;;;;;4956598;29;20039;-64